Portada
METAR-TAF:

METAR-TAF

Aeropuertos :

Base de la Fuerza Aérea Tyndall

Panama City, Florida, Estados Unidos

latitud: 30-04N, longitud: 085-35W, altitud: 5 m

Observación

El informe se hizo hace 23 minutos, a las 21:56 UTC
Viento 9 kt del oeste
Temperatura 21°C
Humedad 46%
Presión 1016 hPa
Visibilidad: 16.1 km
Cielo despejado

METAR: KPAM 022156Z AUTO 26009KT 10SM CLR 21/09 A2999 RMK AO2 SLP159 T02120085 $

Hora: 17:19 (22:19 UTC)

Pronóstico

El informe se hizo hace 3 horas y 19 minutos, a las 19:00 UTC
Pronóstico válido del 02 a las 19 UTC al 04 a las 01 UTC
Viento 6 kt con dirección variable
Visibilidad: 0311 m
Cielo despejado

TAF: KPAM 021900Z 0219/0401 VRB06KT 9999 SKC QNH2994INS TX22/0320Z TN16/0311Z LAST NO AMDS AFT 0222 NEXT 0311

Observaciones y pronósticos meteorológicos de más de 4000 aeropuertos (mensajes METAR y TAF).

Los puntos amarillos y rojos representan las estaciones disponibles.

Ponga el ratón en el punto deseado para ver el nombre de la estación.

Haga clic para ver las observaciones y los pronósticos meteorológicos.

Para cambiar el mapa : haga clic en los botones verdes con una cruz de color negro para hacer un zoom, en el botón verde con un guión para alejar o en las flechas verdes para mapas adyacentes.


METAR-TAF: